Time;durP1;ratioP1;P1;durP2;ratioP2;P2;SDS_P1;SDS_P2;PMS_P1;PMS_P2;Temp;Humidity;BMP_temperature;BMP_pressure;BME280_temperature;BME280_humidity;BME280_pressure;Samples;Min_cycle;Max_cycle;Signal;HPM_P1;HPM_P2
2021/07/20 00:00:49;;;;;;;10.90;5.60;;;13.40;99.90;;;11.94;91.11;101700.97;3550255;39;102394;-38
2021/07/20 00:03:17;;;;;;;9.85;6.35;;;13.40;99.90;;;11.93;91.15;101698.41;3550504;39;102160;-38
2021/07/20 00:05:44;;;;;;;9.52;5.55;;;13.40;99.90;;;11.90;91.37;101705.13;3550126;39;102344;-38
2021/07/20 00:08:12;;;;;;;11.30;6.20;;;13.40;99.90;;;11.86;91.46;101701.09;3550796;39;102497;-38
2021/07/20 00:10:49;;;;;;;11.40;5.88;;;13.30;99.90;;;11.87;91.65;101697.31;3549808;39;102859;-38
2021/07/20 00:13:17;;;;;;;10.60;6.30;;;13.30;99.90;;;11.86;91.62;101705.72;3550746;39;102837;-38
2021/07/20 00:15:46;;;;;;;10.52;5.82;;;13.30;99.90;;;11.83;91.74;101692.47;3550493;39;103180;-38
2021/07/20 00:18:20;;;;;;;15.48;6.10;;;13.30;99.90;;;11.79;92.07;101692.00;3550295;39;102532;-38
2021/07/20 00:20:47;;;;;;;11.23;6.05;;;13.30;99.90;;;11.76;91.79;101693.25;3550363;39;102245;-38
2021/07/20 00:23:16;;;;;;;10.88;6.28;;;13.20;99.90;;;11.75;92.07;101690.72;3549955;39;102230;-38
2021/07/20 00:25:46;;;;;;;11.32;6.03;;;13.20;99.90;;;11.73;92.01;101690.06;3550199;39;103076;-38
2021/07/20 00:28:16;;;;;;;12.60;6.20;;;13.20;99.90;;;11.69;91.96;101688.78;3550187;39;102124;-38
2021/07/20 00:30:44;;;;;;;12.07;6.03;;;13.10;99.90;;;11.69;91.69;101697.00;3549910;39;102336;-38
2021/07/20 00:33:13;;;;;;;12.57;6.40;;;13.10;99.90;;;11.65;91.90;101694.63;3550207;39;102221;-38
2021/07/20 00:35:41;;;;;;;11.85;6.88;;;13.10;99.90;;;11.62;91.62;101697.75;3549631;39;103280;-38
2021/07/20 00:38:11;;;;;;;12.15;6.70;;;13.10;99.90;;;11.63;91.74;101695.88;3549763;39;102306;-38
2021/07/20 00:40:46;;;;;;;11.75;6.40;;;13.10;99.90;;;11.59;91.93;101684.50;3549974;39;102248;-38
2021/07/20 00:43:14;;;;;;;11.80;6.45;;;13.10;99.90;;;11.58;92.17;101693.75;3549871;39;102180;-38
2021/07/20 00:45:45;;;;;;;11.50;6.45;;;13.10;99.90;;;11.58;92.33;101693.75;3549587;39;105293;-38
2021/07/20 00:48:14;;;;;;;13.68;6.57;;;13.00;99.90;;;11.57;92.69;101688.50;3549620;39;102450;-40
2021/07/20 00:50:47;;;;;;;12.20;6.35;;;13.00;99.90;;;11.56;92.79;101693.09;3549977;39;104035;-41
2021/07/20 00:53:15;;;;;;;12.43;6.50;;;13.00;99.90;;;11.55;92.60;101691.41;3549951;39;102528;-41
2021/07/20 00:55:58;;;;;;;12.38;6.63;;;13.00;99.90;;;11.53;92.56;101693.50;3540566;39;103306;-40
2021/07/20 00:58:26;;;;;;;13.07;6.43;;;13.00;99.90;;;11.50;92.58;101689.25;3550143;39;103270;-40
2021/07/20 01:00:54;;;;;;;13.45;6.80;;;13.00;99.90;;;11.50;92.45;101693.88;3540578;39;103187;-41
2021/07/20 01:03:22;;;;;;;13.88;6.80;;;13.00;99.90;;;11.46;92.49;101689.88;3540603;39;105197;-41
2021/07/20 01:05:52;;;;;;;11.60;6.50;;;12.90;99.90;;;11.45;92.57;101688.19;3549535;39;103737;-41
2021/07/20 01:08:23;;;;;;;13.25;7.13;;;12.90;99.90;;;11.44;92.14;101695.53;3540608;39;102415;-40
2021/07/20 01:10:53;;;;;;;13.32;6.63;;;12.90;99.90;;;11.41;92.35;101690.44;3549644;39;105213;-41
2021/07/20 01:13:22;;;;;;;13.60;7.18;;;12.90;99.90;;;11.40;92.65;101698.81;3550156;39;102411;-41
2021/07/20 01:15:51;;;;;;;15.20;7.43;;;12.90;99.90;;;11.26;92.60;101676.88;3550173;39;103578;-40
2021/07/20 01:18:24;;;;;;;11.77;6.68;;;12.80;99.90;;;11.33;92.77;101696.88;3540717;39;102378;-41
2021/07/20 01:20:55;;;;;;;12.85;6.32;;;12.80;99.90;;;11.25;92.68;101686.09;3541011;39;103118;-41
2021/07/20 01:23:35;;;;;;;11.98;6.32;;;12.80;99.90;;;11.31;92.94;101698.97;3540195;39;105503;-41
2021/07/20 01:26:05;;;;;;;12.43;6.72;;;12.80;99.90;;;11.28;93.19;101699.38;3540407;39;102461;-41
2021/07/20 01:28:38;;;;;;;13.60;6.68;;;12.70;99.90;;;11.27;93.20;101700.41;3549702;39;102439;-40
2021/07/20 01:31:16;;;;;;;12.90;6.53;;;12.70;99.90;;;11.24;92.95;101706.28;3549621;39;104095;-41
2021/07/20 01:33:51;;;;;;;13.30;7.25;;;12.70;99.90;;;11.20;93.11;101694.06;3540259;39;102946;-41
2021/07/20 01:36:25;;;;;;;13.60;7.17;;;12.70;99.90;;;11.19;92.87;101697.81;3540604;39;105037;-41
2021/07/20 01:38:56;;;;;;;14.45;6.85;;;12.70;99.90;;;11.14;93.02;101690.19;3540606;39;103281;-41
2021/07/20 01:41:31;;;;;;;12.55;6.30;;;12.70;99.90;;;11.16;93.17;101699.03;3667419;22;104276;-39
2021/07/20 01:44:06;;;;;;;12.15;6.38;;;12.70;99.90;;;11.16;93.05;101698.22;3524974;39;103306;-41
2021/07/20 01:46:37;;;;;;;14.35;6.95;;;12.60;99.90;;;11.14;93.05;101698.41;3529831;39;102223;-40
2021/07/20 01:49:14;;;;;;;14.52;7.57;;;12.60;99.90;;;11.11;92.86;101698.78;3530061;39;102274;-40
2021/07/20 01:51:44;;;;;;;12.18;6.13;;;12.60;99.90;;;11.06;93.04;101704.81;3529859;39;103116;-40
2021/07/20 01:54:16;;;;;;;14.43;7.50;;;12.60;99.90;;;11.07;92.86;101700.22;3529447;39;102315;-40
2021/07/20 01:56:47;;;;;;;12.55;6.35;;;12.50;99.90;;;10.99;92.82;101695.72;3528424;39;102099;-41
2021/07/20 01:59:17;;;;;;;14.48;6.50;;;12.50;99.90;;;10.98;92.98;101702.22;3530160;39;102248;-40
2021/07/20 02:02:30;;;;;;;13.73;6.57;;;12.50;99.90;;;10.97;93.05;101703.28;3529377;39;104255;-39
2021/07/20 02:10:43;;;;;;;12.35;6.20;;;12.40;99.90;;;10.81;93.31;101698.91;3528339;39;102525;-40
2021/07/20 02:13:26;;;;;;;13.13;6.78;;;12.30;99.90;;;10.82;93.24;101699.72;3528303;39;103281;-40
2021/07/20 02:16:09;;;;;;;11.85;6.38;;;12.30;99.90;;;10.82;93.55;101703.31;3529746;39;102302;-41
2021/07/20 02:18:53;;;;;;;10.07;5.50;;;12.30;99.90;;;10.79;93.72;101698.25;3528278;39;104085;-40
2021/07/20 02:21:52;;;;;;;12.85;6.30;;;12.30;99.90;;;10.77;93.00;101692.97;3529851;39;103334;-39
2021/07/20 02:24:26;;;;;;;11.80;6.20;;;12.30;99.90;;;10.76;93.23;101701.38;3528002;39;103314;-42
2021/07/20 02:26:57;;;;;;;13.63;7.07;;;12.20;99.90;;;10.74;93.32;101693.34;3528306;39;102649;-40
2021/07/20 02:29:27;;;;;;;15.63;7.70;;;12.30;99.90;;;10.71;93.73;101703.81;3528329;39;102370;-40
2021/07/20 02:32:03;;;;;;;14.18;6.90;;;12.20;99.90;;;10.68;93.42;101704.19;3529093;39;102426;-40
2021/07/20 02:34:34;;;;;;;14.73;6.38;;;12.10;99.90;;;10.67;93.67;101697.91;3529305;39;102398;-40
2021/07/20 02:37:04;;;;;;;12.55;6.65;;;12.20;99.90;;;10.66;93.86;101693.47;3529660;39;102372;-40
2021/07/20 02:39:35;;;;;;;12.73;6.88;;;12.10;99.90;;;10.68;94.39;101704.19;3528900;39;105335;-39
2021/07/20 02:42:05;;;;;;;12.82;6.97;;;12.20;99.90;;;10.65;94.27;101691.78;3529580;39;103409;-40
2021/07/20 02:44:34;;;;;;;11.60;5.93;;;12.10;99.90;;;10.65;94.26;101697.25;3529404;39;102289;-40
2021/07/20 02:47:05;;;;;;;14.05;6.28;;;12.10;99.90;;;10.60;94.24;101689.63;3528358;39;102341;-40
2021/07/20 02:49:37;;;;;;;13.00;6.28;;;12.10;99.90;;;10.57;93.91;101692.75;3529452;39;102650;-39
2021/07/20 02:52:08;;;;;;;13.07;6.47;;;12.10;99.90;;;10.56;93.78;101692.91;3528131;39;103283;-39
2021/07/20 02:54:40;;;;;;;11.27;5.95;;;12.10;99.90;;;10.52;93.92;101687.03;3528033;39;105946;-39
2021/07/20 02:57:12;;;;;;;13.05;7.00;;;12.00;99.90;;;10.49;93.85;101688.25;3528283;39;102542;-39
2021/07/20 02:59:48;;;;;;;13.00;6.00;;;12.00;99.90;;;10.47;94.25;101689.44;3529306;39;103130;-40
2021/07/20 03:02:44;;;;;;;13.02;6.95;;;12.00;99.90;;;10.44;94.20;101687.09;3529235;39;102406;-40
2021/07/20 03:05:16;;;;;;;13.52;6.38;;;12.00;99.90;;;10.42;93.86;101691.91;3529327;39;103424;-39
2021/07/20 03:08:00;;;;;;;14.00;6.05;;;12.00;99.90;;;10.38;94.04;101694.16;3528342;39;102436;-40
2021/07/20 03:10:38;;;;;;;14.20;7.35;;;11.90;99.90;;;10.37;94.29;101687.00;3528008;39;104435;-39
2021/07/20 03:13:10;;;;;;;17.08;7.18;;;11.90;99.90;;;10.36;94.40;101693.50;3528238;39;104791;-41
2021/07/20 03:15:45;;;;;;;13.40;6.95;;;11.90;99.90;;;10.35;94.31;101694.53;3527642;39;102405;-39
2021/07/20 03:18:15;;;;;;;13.77;6.65;;;11.80;99.90;;;10.33;94.39;101693.84;3528212;39;102433;-40
2021/07/20 03:20:45;;;;;;;13.55;7.32;;;11.80;99.90;;;10.32;94.96;101695.75;3529024;39;102334;-40
2021/07/20 03:23:14;;;;;;;14.18;6.72;;;11.80;99.90;;;10.30;94.63;101699.69;3536096;39;104730;-39
2021/07/20 03:25:45;;;;;;;15.63;6.68;;;11.80;99.90;;;10.29;94.59;101700.72;3528686;39;102216;-41
2021/07/20 03:28:15;;;;;;;15.18;7.22;;;11.80;99.90;;;10.27;94.75;101697.34;3529324;39;104310;-39
2021/07/20 03:30:45;;;;;;;10.80;6.40;;;11.80;99.90;;;10.24;94.79;101690.41;3527801;39;103273;-40
2021/07/20 03:33:17;;;;;;;13.50;7.05;;;11.80;99.90;;;10.22;94.63;101689.75;3528879;39;103033;-40
2021/07/20 03:36:02;;;;;;;13.70;7.00;;;11.70;99.90;;;10.19;94.28;101692.84;3527913;39;103195;-40
2021/07/20 03:38:37;;;;;;;13.45;6.95;;;11.70;99.90;;;10.18;94.52;101688.41;3527893;39;102108;-40
2021/07/20 03:41:07;;;;;;;11.18;5.85;;;11.70;99.90;;;10.18;94.53;101693.88;3527906;39;104394;-40
2021/07/20 03:43:36;;;;;;;12.80;6.70;;;11.70;99.90;;;10.19;94.76;101687.38;3528742;39;102313;-40
2021/07/20 03:46:05;;;;;;;14.75;7.22;;;11.70;99.90;;;10.17;94.50;101676.69;3528296;39;102306;-39
2021/07/20 03:48:36;;;;;;;14.93;6.80;;;11.70;99.90;;;10.21;94.72;101685.31;3529060;39;102561;-39
2021/07/20 03:51:16;;;;;;;12.80;6.63;;;11.70;99.90;;;10.22;94.91;101687.03;3527707;39;104456;-39
2021/07/20 03:53:46;;;;;;;13.45;6.95;;;11.70;99.90;;;10.22;94.81;101687.03;3528605;39;102084;-39
2021/07/20 03:56:16;;;;;;;15.38;7.40;;;11.70;99.90;;;10.23;95.00;101694.19;3527590;39;103393;-39
2021/07/20 03:58:56;;;;;;;11.93;6.40;;;11.70;99.90;;;10.22;95.19;101690.59;3529056;39;103178;-39
2021/07/20 04:01:32;;;;;;;12.68;6.78;;;11.70;99.90;;;10.24;95.14;101695.88;3527649;39;102674;-39
2021/07/20 04:04:02;;;;;;;14.50;6.97;;;11.70;99.90;;;10.27;95.40;101698.22;3528725;39;102148;-38
2021/07/20 04:07:01;;;;;;;13.43;7.03;;;11.70;99.90;;;10.29;95.24;101696.13;3521647;39;102995;-39
2021/07/20 04:09:32;;;;;;;13.90;6.70;;;11.70;99.90;;;10.30;95.28;101703.28;3529065;39;102308;-39
2021/07/20 04:12:21;;;;;;;;;;;11.80;99.90;;;10.34;95.60;101693.69;3528354;39;102538;-40
2021/07/20 04:15:19;;;;;;;13.85;6.82;;;11.80;99.90;;;10.34;95.56;101693.69;3530205;39;102463;-39
2021/07/20 04:18:11;;;;;;;15.02;7.15;;;11.80;99.90;;;10.42;95.60;101691.91;3524107;39;103896;-39
2021/07/20 04:20:39;;;;;;;14.90;7.28;;;11.90;99.90;;;10.43;95.57;101689.00;3528582;39;103422;-40
2021/07/20 04:23:08;;;;;;;12.27;6.25;;;11.90;99.90;;;10.49;95.96;101695.59;3528800;39;102165;-41
2021/07/20 04:25:48;;;;;;;11.57;6.10;;;11.90;99.90;;;10.55;95.63;101697.56;3528599;39;102367;-41
2021/07/20 04:28:20;;;;;;;13.70;6.85;;;12.00;99.90;;;10.58;95.65;101697.16;3529212;39;102519;-40
2021/07/20 04:30:49;;;;;;;14.88;7.65;;;12.00;99.90;;;10.65;96.05;101698.09;3529945;39;102391;-40
2021/07/20 04:33:28;;;;;;;14.52;6.90;;;12.10;99.90;;;10.71;95.91;101701.94;3530018;39;102195;-39
2021/07/20 04:36:16;;;;;;;13.15;7.07;;;12.10;99.90;;;10.77;96.32;101706.63;3513840;39;103860;-39
2021/07/20 04:38:46;;;;;;;13.43;6.47;;;12.20;99.90;;;10.86;96.06;101703.75;3528781;39;102193;-40
2021/07/20 04:41:17;;;;;;;;;;;12.20;99.90;;;10.96;96.53;101706.19;3530918;39;103267;-39
2021/07/20 04:43:47;;;;;;;12.80;6.50;;;12.30;99.90;;;11.04;96.49;101703.34;3529940;39;104213;-40
2021/07/20 04:46:25;;;;;;;16.05;7.20;;;12.40;99.90;;;11.13;96.46;101704.03;3528682;39;104959;-40
2021/07/20 04:49:02;;;;;;;16.58;7.75;;;12.50;99.90;;;11.15;96.10;101697.34;3530115;39;102261;-40
2021/07/20 04:51:32;;;;;;;17.52;8.82;;;12.50;99.90;;;11.35;96.75;101704.91;3529600;39;103605;-40
2021/07/20 04:54:03;;;;;;;15.98;7.97;;;12.70;99.90;;;11.42;96.83;101702.25;3529790;39;103289;-39
2021/07/20 04:56:33;;;;;;;16.60;8.18;;;12.70;99.90;;;11.51;97.00;101690.94;3528739;39;102534;-40
2021/07/20 04:59:02;;;;;;;17.13;8.48;;;12.80;99.90;;;11.62;96.75;101695.03;3528623;39;102544;-39
2021/07/20 05:01:34;;;;;;;19.00;9.05;;;12.90;99.90;;;11.80;96.91;101693.69;3529742;39;103276;-39
2021/07/20 05:04:07;;;;;;;22.15;10.07;;;13.10;99.90;;;12.04;96.71;101702.50;3528550;39;102326;-40
2021/07/20 05:06:48;;;;;;;25.43;10.30;;;13.30;99.90;;;12.26;96.36;101708.72;3529860;39;103519;-39
2021/07/20 05:09:19;;;;;;;19.33;9.50;;;13.40;99.90;;;12.42;95.45;101712.19;3528627;39;102351;-39
2021/07/20 05:11:47;;;;;;;23.33;10.60;;;13.60;99.90;;;12.56;92.92;101716.66;3529431;39;102342;-39
2021/07/20 05:14:19;;;;;;;23.55;10.48;;;13.70;99.90;;;12.61;90.93;101711.44;3529601;39;103491;-39
2021/07/20 05:16:48;;;;;;;21.63;9.70;;;13.80;99.90;;;12.75;91.22;101716.94;3528809;39;102442;-39
2021/07/20 05:19:19;;;;;;;24.25;10.50;;;13.90;99.90;;;12.91;90.62;101721.22;3528506;39;102470;-40
2021/07/20 05:22:04;;;;;;;22.88;10.48;;;14.10;99.90;;;13.02;90.26;101722.50;3530019;39;103550;-40
2021/07/20 05:24:44;;;;;;;22.65;9.73;;;14.20;99.90;;;13.12;88.64;101711.16;3528466;39;102466;-40
2021/07/20 05:27:16;;;;;;;21.63;10.43;;;14.30;99.90;;;13.28;88.30;101718.13;3537098;39;102450;-39
2021/07/20 05:29:47;;;;;;;21.80;10.95;;;14.40;99.90;;;13.43;87.57;101723.44;3529714;39;103355;-39
2021/07/20 05:32:39;;;;;;;23.10;9.93;;;14.50;99.90;;;13.68;88.65;101725.56;3529844;39;102158;-39
2021/07/20 05:35:13;;;;;;;23.90;9.55;;;14.70;99.90;;;13.87;88.67;101719.22;3529483;39;104494;-40
2021/07/20 05:37:43;;;;;;;23.00;11.00;;;14.90;99.90;;;14.02;87.28;101720.88;3529166;39;103592;-39
2021/07/20 05:40:18;;;;;;;21.00;9.95;;;15.10;99.90;;;14.14;85.50;101721.94;3529035;39;105654;-40
2021/07/20 05:42:47;;;;;;;19.25;9.57;;;15.20;99.90;;;14.20;82.27;101726.53;3528577;39;102937;-39
2021/07/20 05:45:40;;;;;;;21.58;10.02;;;15.30;99.90;;;14.36;82.66;101727.97;3525204;39;102399;-39
2021/07/20 05:48:14;;;;;;;19.52;9.93;;;15.50;99.90;;;14.57;84.70;101736.13;3528954;39;102347;-40
2021/07/20 05:50:54;;;;;;;21.80;10.57;;;15.60;99.90;;;14.62;83.32;101736.34;3528628;39;104218;-39
2021/07/20 05:53:42;;;;;;;24.27;11.32;;;15.70;99.90;;;14.60;80.81;101730.25;3518209;39;104247;-40
2021/07/20 05:56:34;;;;;;;19.13;9.60;;;15.80;99.90;;;14.83;81.45;101743.47;3529719;39;102858;-39
2021/07/20 05:59:25;;;;;;;22.35;10.00;;;15.90;99.90;;;15.02;80.51;101749.91;3528589;39;102392;-41
2021/07/20 06:01:54;;;;;;;22.63;10.35;;;16.00;99.90;;;15.14;79.53;101757.47;3529243;39;104345;-39
2021/07/20 06:04:23;;;;;;;20.67;9.88;;;16.10;99.90;;;15.25;81.32;101745.75;3536668;39;103534;-40
2021/07/20 06:06:52;;;;;;;20.92;9.50;;;16.30;99.90;;;15.37;78.50;101756.91;3529324;39;103304;-40
2021/07/20 06:09:21;;;;;;;21.95;10.02;;;16.40;99.90;;;15.57;80.08;101754.00;3529808;39;102513;-40
2021/07/20 06:11:50;;;;;;;19.40;10.23;;;16.60;99.90;;;15.70;78.17;101755.78;3529594;39;104104;-40
2021/07/20 06:14:22;;;;;;;18.90;9.75;;;16.70;99.90;;;15.82;77.85;101758.66;3529138;39;102822;-39
2021/07/20 06:16:52;;;;;;;22.52;10.35;;;16.80;99.90;;;15.72;75.46;101758.34;3529607;39;102759;-40
2021/07/20 06:19:19;;;;;;;21.42;10.07;;;16.90;99.90;;;15.79;75.01;101759.97;3529457;39;102512;-40
2021/07/20 06:21:49;;;;;;;20.17;9.90;;;16.90;99.90;;;15.80;73.84;101758.03;3529242;39;102435;-40
2021/07/20 06:24:23;;;;;;;22.00;10.07;;;16.90;99.90;;;15.91;73.99;101760.09;3528041;39;102312;-41
2021/07/20 06:26:51;;;;;;;;;;;16.90;99.90;;;16.01;74.03;101762.31;3530329;39;102282;-39
2021/07/20 06:29:22;;;;;;;20.02;9.25;;;17.00;99.90;;;16.17;75.11;101762.81;3529364;39;102203;-39
2021/07/20 06:31:51;;;;;;;18.77;9.20;;;17.10;99.90;;;16.18;72.72;101753.50;3529120;39;102221;-40
2021/07/20 06:34:20;;;;;;;17.38;9.60;;;17.20;99.90;;;16.28;73.56;101758.47;3529877;39;102435;-40
2021/07/20 06:36:49;;;;;;;21.60;10.32;;;17.20;99.90;;;16.27;73.67;101754.03;3529136;39;102474;-40
2021/07/20 06:39:16;;;;;;;18.73;9.43;;;17.30;99.90;;;16.34;73.59;101763.91;3529303;39;102361;-40
2021/07/20 06:41:45;;;;;;;18.27;9.50;;;17.40;99.90;;;16.47;74.58;101768.44;3529179;39;102356;-40
2021/07/20 06:44:15;;;;;;;21.30;10.10;;;17.50;99.90;;;16.59;75.36;101767.66;3528236;39;104885;-40
2021/07/20 06:46:43;;;;;;;21.77;9.52;;;17.60;99.90;;;16.60;75.13;101766.59;3529340;39;102320;-40
2021/07/20 06:49:18;;;;;;;18.08;9.20;;;17.70;99.90;;;16.64;74.11;101767.81;3529100;39;102384;-40
2021/07/20 06:51:45;;;;;;;20.13;9.48;;;17.70;99.90;;;16.72;72.69;101764.75;3528967;39;104258;-40
2021/07/20 06:54:14;;;;;;;18.83;9.63;;;17.80;99.90;;;16.61;71.62;101762.75;3529139;39;102418;-40
2021/07/20 06:56:57;;;;;;;18.40;9.60;;;17.80;99.90;;;16.76;72.04;101765.13;3529935;39;103196;-40
2021/07/20 06:59:26;;;;;;;18.65;9.55;;;17.90;99.90;;;16.92;72.79;101766.38;3529067;39;102257;-40
2021/07/20 07:01:56;;;;;;;19.40;9.30;;;18.00;99.90;;;17.04;72.15;101766.47;3529294;39;103098;-40
2021/07/20 07:04:41;;;;;;;19.50;9.30;;;18.00;99.90;;;17.18;70.72;101776.25;3529595;39;102359;-40
2021/07/20 07:07:12;;;;;;;18.95;10.00;;;18.20;99.90;;;17.27;72.99;101776.78;3529703;39;102287;-40
2021/07/20 07:09:41;;;;;;;18.48;9.85;;;18.30;99.90;;;17.39;72.48;101774.88;3529405;39;102345;-40
2021/07/20 07:12:11;;;;;;;17.45;10.07;;;18.40;99.90;;;17.40;69.67;101771.03;3529347;39;102289;-39
2021/07/20 07:14:39;;;;;;;20.92;9.70;;;18.40;99.90;;;17.53;71.83;101775.50;3529156;39;102793;-40
2021/07/20 07:17:08;;;;;;;17.55;9.05;;;18.50;99.90;;;17.68;69.92;101780.56;3529275;39;103310;-40
2021/07/20 07:19:39;;;;;;;16.20;9.20;;;18.60;99.90;;;17.67;69.44;101765.09;3529335;39;102426;-39
2021/07/20 07:22:07;;;;;;;17.73;9.30;;;18.60;99.90;;;17.87;70.87;101774.97;3529150;39;104200;-40
2021/07/20 07:24:37;;;;;;;19.13;9.32;;;18.70;99.90;;;17.89;67.87;101764.53;3528842;39;102366;-40
2021/07/20 07:27:06;;;;;;;19.25;9.35;;;18.80;99.90;;;17.97;67.02;101763.34;3528879;39;102275;-40
2021/07/20 07:29:34;;;;;;;17.80;9.27;;;18.90;99.90;;;18.01;66.22;101774.72;3529220;39;102730;-40
2021/07/20 07:32:02;;;;;;;19.10;9.88;;;19.00;99.90;;;18.23;69.17;101766.72;3528781;39;103152;-40
2021/07/20 07:34:29;;;;;;;18.27;8.70;;;19.10;99.90;;;18.40;68.83;101766.81;3529241;39;102457;-40
2021/07/20 07:36:59;;;;;;;18.02;9.05;;;19.20;99.90;;;18.37;67.01;101776.44;3529266;39;103159;-40
2021/07/20 07:39:28;;;;;;;19.27;9.20;;;19.30;99.90;;;18.49;67.29;101776.41;3529212;39;103502;-40
2021/07/20 07:41:58;;;;;;;20.05;9.40;;;19.40;99.90;;;18.63;68.48;101781.69;3674495;22;104255;-38
2021/07/20 07:44:28;;;;;;;17.35;9.20;;;19.50;99.90;;;18.61;68.86;101770.88;3548263;39;102423;-38
2021/07/20 07:46:59;;;;;;;17.02;8.38;;;19.60;99.90;;;18.85;68.78;101781.03;3548579;39;103790;-38
2021/07/20 07:49:28;;;;;;;16.52;9.10;;;19.70;99.90;;;18.81;67.16;101784.25;3548995;39;102773;-41
2021/07/20 07:51:56;;;;;;;15.68;8.93;;;19.80;99.90;;;18.88;64.24;101786.88;3548719;39;103423;-41
2021/07/20 07:54:24;;;;;;;17.00;8.88;;;19.80;99.90;;;18.85;65.07;101787.38;3548762;39;102268;-41
2021/07/20 07:56:52;;;;;;;17.45;9.43;;;19.80;99.90;;;19.00;67.28;101789.66;3548746;39;103830;-40
2021/07/20 07:59:24;;;;;;;17.98;8.88;;;19.80;99.90;;;19.02;65.20;101783.88;3548518;39;102445;-41
2021/07/20 08:01:55;;;;;;;18.08;9.35;;;19.90;99.90;;;18.93;64.67;101778.69;3548782;39;102496;-41
2021/07/20 08:04:27;;;;;;;18.02;9.23;;;19.90;99.90;;;19.19;65.00;101779.22;3549500;39;102492;-42
2021/07/20 08:06:58;;;;;;;17.92;8.90;;;20.10;99.90;;;19.16;63.14;101773.38;3549813;39;103356;-41
2021/07/20 08:09:30;;;;;;;15.18;8.55;;;20.10;99.90;;;19.15;65.90;101772.50;3550070;39;102499;-41
2021/07/20 08:12:01;;;;;;;14.70;8.02;;;20.20;99.90;;;19.22;60.58;101775.13;3550318;39;102258;-41
2021/07/20 08:14:29;;;;;;;13.80;7.97;;;20.10;99.90;;;19.04;62.46;101782.53;3550067;39;102373;-40
2021/07/20 08:17:01;;;;;;;12.13;6.85;;;20.20;99.90;;;19.17;62.04;101780.56;3550264;39;102652;-41
2021/07/20 08:19:32;;;;;;;13.20;7.05;;;20.10;99.90;;;19.16;63.96;101789.97;3549881;39;102225;-41
2021/07/20 08:22:02;;;;;;;12.23;6.70;;;20.20;99.90;;;19.02;59.11;101781.94;3549727;39;102288;-39
2021/07/20 08:24:31;;;;;;;15.13;7.43;;;20.10;99.90;;;19.33;61.75;101777.00;3549915;39;102161;-38
2021/07/20 08:27:12;;;;;;;12.88;6.88;;;20.20;99.90;;;19.70;65.35;101775.69;3549925;39;103287;-39
2021/07/20 08:29:44;;;;;;;13.93;6.75;;;20.40;99.90;;;19.94;62.17;101787.47;3549696;39;102146;-38
2021/07/20 08:32:16;;;;;;;11.80;6.95;;;20.70;99.90;;;20.17;62.86;101782.84;3549963;39;104365;-39
2021/07/20 08:34:57;;;;;;;12.98;7.30;;;20.90;99.90;;;20.41;59.58;101775.16;3550280;39;102586;-38
2021/07/20 08:37:45;;;;;;;19.02;7.32;;;21.10;99.90;;;20.40;57.96;101780.94;3549932;39;102178;-39
2021/07/20 08:40:53;;;;;;;12.35;6.28;;;21.20;99.90;;;20.57;55.91;101792.00;3549622;39;102358;-39
2021/07/20 08:43:39;;;;;;;11.93;6.50;;;21.30;99.90;;;20.59;54.49;101788.94;3550255;39;102363;-39
2021/07/20 08:46:24;;;;;;;14.20;7.25;;;21.40;99.90;;;20.87;58.04;101787.97;3550173;39;102463;-38
2021/07/20 08:49:16;;;;;;;14.50;6.50;;;21.50;99.90;;;20.76;56.57;101786.97;3550442;39;103544;-38
2021/07/20 08:52:20;;;;;;;13.10;6.35;;;21.60;99.90;;;20.84;54.48;101785.72;3550489;39;102515;-38
2021/07/20 08:54:59;;;;;;;14.90;7.00;;;21.60;99.90;;;20.82;53.86;101777.63;3549853;39;103108;-39
2021/07/20 08:57:47;;;;;;;13.15;6.60;;;21.70;99.90;;;21.08;53.65;101772.38;3549822;39;102340;-39
2021/07/20 09:00:22;;;;;;;12.48;7.15;;;21.80;99.90;;;20.95;53.46;101778.31;3549694;39;103278;-38
2021/07/20 09:03:06;;;;;;;12.23;6.85;;;21.80;99.90;;;20.98;54.66;101775.06;3549875;39;102613;-38
2021/07/20 09:06:03;;;;;;;12.23;6.55;;;21.80;99.90;;;20.70;53.32;101779.69;3549629;39;102188;-38
2021/07/20 09:08:34;;;;;;;14.40;6.72;;;21.70;99.90;;;20.72;57.13;101783.03;3549687;39;102480;-38
2021/07/20 09:11:38;;;;;;;12.55;6.88;;;21.60;99.90;;;20.77;53.64;101785.00;3549497;39;102363;-37
2021/07/20 09:14:36;;;;;;;13.48;6.90;;;21.70;99.90;;;20.50;53.84;101794.94;3549397;39;102362;-38
2021/07/20 09:17:13;;;;;;;10.48;5.95;;;21.60;99.90;;;20.38;56.78;101795.06;3542199;39;102210;-39
2021/07/20 09:19:59;;;;;;;10.48;5.97;;;21.40;99.90;;;20.25;57.55;101800.94;3550396;39;102293;-38
2021/07/20 09:23:00;;;;;;;13.45;6.95;;;21.30;99.90;;;20.08;53.25;101804.59;3549414;39;102299;-38
2021/07/20 09:25:38;;;;;;;12.60;6.80;;;21.20;99.90;;;19.99;53.17;101800.56;3549519;39;102367;-38
2021/07/20 09:28:33;;;;;;;10.83;6.43;;;21.00;99.90;;;20.04;55.69;101799.81;3549624;39;102113;-39
2021/07/20 09:31:06;;;;;;;11.27;6.38;;;21.00;99.90;;;20.02;53.21;101797.28;3550109;39;102392;-39
2021/07/20 09:34:11;;;;;;;11.10;6.03;;;20.90;99.90;;;20.03;54.40;101803.66;3549306;39;102485;-38
2021/07/20 09:36:56;;;;;;;11.43;6.47;;;20.90;99.90;;;20.47;53.67;101798.22;3541744;39;103091;-39
2021/07/20 09:39:54;;;;;;;9.23;5.82;;;21.10;99.90;;;20.83;51.79;101789.59;3549549;39;103310;-39
2021/07/20 09:42:54;;;;;;;10.50;6.35;;;21.40;99.90;;;20.64;52.31;101791.78;3549695;39;102816;-39
2021/07/20 09:45:31;;;;;;;10.40;6.05;;;21.50;99.90;;;20.48;56.31;101794.38;3549794;39;103229;-38
2021/07/20 09:48:24;;;;;;;11.37;6.43;;;21.40;99.90;;;20.33;53.95;101791.38;3549868;39;102372;-38
2021/07/20 09:51:25;;;;;;;11.77;6.30;;;21.40;99.90;;;20.23;58.28;101795.69;3550074;39;104133;-39
2021/07/20 09:54:30;;;;;;;9.38;5.90;;;21.20;99.90;;;20.51;55.38;101793.00;3530521;39;103615;-38
2021/07/20 09:57:33;;;;;;;10.38;5.93;;;21.30;99.90;;;20.69;50.87;101786.31;3549233;39;102312;-39
2021/07/20 10:00:32;;;;;;;10.40;5.40;;;21.50;99.90;;;20.95;53.76;101781.94;3549810;39;102144;-38
2021/07/20 10:03:34;;;;;;;9.97;5.73;;;21.70;99.90;;;20.88;51.66;101786.00;3549297;39;103184;-38
2021/07/20 10:06:10;;;;;;;10.23;5.82;;;21.80;99.90;;;20.78;53.43;101787.53;3550015;39;102194;-39
2021/07/20 10:08:56;;;;;;;10.23;5.78;;;21.70;99.90;;;20.56;52.50;101793.09;3549221;39;103958;-38
2021/07/20 10:11:54;;;;;;;10.32;5.78;;;21.60;99.90;;;20.30;55.85;101791.88;3549655;39;102479;-38
2021/07/20 10:14:50;;;;;;;10.25;5.95;;;21.40;99.90;;;20.26;53.51;101794.31;3549356;39;102315;-38
2021/07/20 10:17:50;;;;;;;9.88;5.80;;;21.30;99.90;;;20.62;55.09;101788.44;3549064;39;102098;-38
2021/07/20 10:20:33;;;;;;;11.60;5.60;;;21.50;99.90;;;21.13;55.35;101777.97;3549552;39;104159;-37
2021/07/20 10:23:15;;;;;;;9.48;6.05;;;21.80;99.90;;;21.13;55.22;101783.53;3549887;39;102113;-39
2021/07/20 10:25:58;;;;;;;13.40;5.97;;;21.90;99.90;;;20.89;52.39;101785.75;3549448;39;103218;-38
2021/07/20 10:28:40;;;;;;;9.57;5.78;;;21.80;99.90;;;21.17;52.25;101783.00;3549298;39;102565;-40
2021/07/20 10:31:15;;;;;;;8.55;5.72;;;21.90;99.90;;;21.34;51.81;101786.53;3549411;39;104265;-39
2021/07/20 10:34:07;;;;;;;11.85;6.13;;;22.10;99.90;;;21.57;53.75;101781.75;3549755;39;102427;-38
2021/07/20 10:37:02;;;;;;;10.30;6.28;;;22.30;99.90;;;21.49;48.10;101780.28;3549425;39;103236;-38
2021/07/20 10:39:42;;;;;;;9.30;5.68;;;22.40;99.90;;;21.64;49.46;101771.28;3549412;39;102408;-37
2021/07/20 10:42:31;;;;;;;10.50;5.93;;;22.50;99.90;;;21.62;47.51;101773.44;3549637;39;104177;-39